Conception Junction, Missouri
Current Conditions -  °F | °C
As of 8:15 AM on Thursday 18 Dec 2014 (Local Time) from KICL Reporting Station
Light Snow Light Snow  
Wind Chill: 19°   Ceiling: Unl
Heat Index: 27°   Visibility: 2mi
Dew Point: 25°   Wind: 7mph
Humidity: 93%   Direction: 60°ENE
Pressure: 30.26"   Gusts: NA
Location:  40.27°N, 94.69°W
Report Text: KICL 181415Z AUTO 06006KT 2SM -SN SCT024 SCT030 SCT038 M03/M04 A3026 RMK AO2
Loading
Personal Weather Stations






























Interactive Weather Map New forecast layout! Learn more

10-Day Weather Forecast

Advertisements
Track Severe Weather on mobile